createdAt,value
2023-05-25T00:08:40.425Z,101424.56
2023-05-25T00:18:43.232Z,101424.59
2023-05-25T00:28:45.427Z,101413.03
2023-05-25T00:38:47.845Z,101414.97
2023-05-25T00:48:52.569Z,101409.94
2023-05-25T00:58:56.979Z,101416.50
2023-05-25T01:09:02.036Z,101433.47
2023-05-25T01:19:04.721Z,101425.09
2023-05-25T01:29:08.720Z,101422.06
2023-05-25T01:39:11.241Z,101418.56
2023-05-25T01:49:19.864Z,101442.63
2023-05-25T01:59:22.116Z,101440.53
2023-05-25T02:09:27.060Z,101429.56
2023-05-25T02:19:29.586Z,101433.16
2023-05-25T02:29:32.200Z,101435.34
2023-05-25T02:39:36.043Z,101438.19
2023-05-25T02:49:38.656Z,101453.91
2023-05-25T02:59:42.030Z,101454.47
2023-05-25T03:09:44.273Z,101454.47
2023-05-25T03:19:46.932Z,101468.44
2023-05-25T03:29:50.649Z,101451.09
2023-05-25T03:39:52.945Z,101469.28
2023-05-25T03:49:55.424Z,101481.59
2023-05-25T03:59:57.708Z,101495.31
2023-05-25T04:10:00.160Z,101500.41
2023-05-25T04:20:03.753Z,101507.38
2023-05-25T04:30:06.754Z,101515.75
2023-05-25T04:40:38.048Z,101528.88
2023-05-25T04:50:40.421Z,101524.22
2023-05-25T05:00:44.295Z,101534.28
2023-05-25T05:10:46.776Z,101538.28
2023-05-25T05:20:49.156Z,101558.38
2023-05-25T05:30:53.650Z,101574.50
2023-05-25T05:40:56.126Z,101591.38
2023-05-25T05:50:58.849Z,101596.34
2023-05-25T06:01:02.189Z,101598.16
2023-05-25T06:11:04.457Z,101604.56
2023-05-25T06:21:06.708Z,101606.94
2023-05-25T06:31:08.924Z,101608.34
2023-05-25T06:41:14.962Z,101609.50
2023-05-25T06:51:18.808Z,101618.91
2023-05-25T07:01:21.267Z,101630.28
2023-05-25T07:11:23.600Z,101619.28
2023-05-25T07:21:25.770Z,101630.94
2023-05-25T07:31:27.970Z,101628.94
2023-05-25T07:41:30.208Z,101636.56
2023-05-25T07:51:32.862Z,101644.84
2023-05-25T08:01:36.062Z,101642.13
2023-05-25T08:11:39.965Z,101641.06
2023-05-25T08:21:42.355Z,101649.34
2023-05-25T08:31:49.813Z,101644.31
2023-05-25T08:41:52.170Z,101669.28
2023-05-25T08:51:55.503Z,101672.34
2023-05-25T09:02:22.860Z,101673.63
2023-05-25T09:12:25.711Z,101684.19
2023-05-25T09:22:28.252Z,101686.34
2023-05-25T09:32:31.129Z,101694.19
2023-05-25T09:42:37.409Z,101696.75
2023-05-25T09:52:39.553Z,101703.13
2023-05-25T10:02:41.711Z,101717.09
2023-05-25T10:12:44.783Z,101713.06
2023-05-25T10:23:05.731Z,101717.38
2023-05-25T10:33:08.112Z,101718.97
2023-05-25T10:43:10.507Z,101717.38
2023-05-25T10:53:13.504Z,101712.94
2023-05-25T11:03:15.714Z,101702.50
2023-05-25T11:13:21.462Z,101698.88
2023-05-25T11:23:24.053Z,101698.94
2023-05-25T11:33:26.220Z,101688.72
2023-05-25T11:43:29.600Z,101676.50
2023-05-25T11:53:32.566Z,101674.91
2023-05-25T12:03:36.564Z,101671.03
2023-05-25T12:13:41.111Z,101658.78
2023-05-25T12:23:43.434Z,101651.59
2023-05-25T12:33:45.958Z,101654.31
2023-05-25T12:43:49.340Z,101641.53
2023-05-25T12:53:51.920Z,101646.44
2023-05-25T13:03:54.186Z,101641.53
2023-05-25T13:13:56.818Z,101657.91
2023-05-25T13:23:59.017Z,101643.38
2023-05-25T13:34:01.176Z,101630.78
2023-05-25T13:44:03.714Z,101620.13
2023-05-25T13:54:06.126Z,101616.31
2023-05-25T14:04:10.036Z,101602.34
2023-05-25T14:14:27.129Z,101603.28
2023-05-25T14:24:33.335Z,101582.63
2023-05-25T14:34:35.716Z,101588.53
2023-05-25T14:44:37.941Z,101578.22
2023-05-25T14:54:44.783Z,101584.41
2023-05-25T15:04:47.723Z,101579.41
2023-05-25T15:14:49.968Z,101573.38
2023-05-25T15:24:52.086Z,101562.38
2023-05-25T15:34:54.210Z,101564.78
2023-05-25T15:44:56.616Z,101556.97
2023-05-25T15:54:58.808Z,101550.88
2023-05-25T16:05:00.985Z,101532.72
2023-05-25T16:15:03.146Z,101538.88
2023-05-25T16:25:05.694Z,101549.97
2023-05-25T16:35:08.185Z,101526.03
2023-05-25T16:45:10.739Z,101538.22
2023-05-25T16:55:14.468Z,101536.00
2023-05-25T17:05:16.712Z,101540.06
2023-05-25T17:15:18.997Z,101540.06
2023-05-25T17:25:21.580Z,101525.06
2023-05-25T17:35:23.762Z,101532.53
2023-05-25T17:45:26.109Z,101523.38
2023-05-25T17:55:28.467Z,101533.84
2023-05-25T18:05:30.646Z,101528.72
2023-05-25T18:15:32.832Z,101526.41
2023-05-25T18:25:34.951Z,101536.88
2023-05-25T18:35:37.908Z,101541.50
2023-05-25T18:45:40.056Z,101537.63
2023-05-25T18:55:42.415Z,101534.66
2023-05-25T19:05:44.781Z,101550.41
2023-05-25T19:15:47.275Z,101548.94
2023-05-25T19:25:49.579Z,101549.69
2023-05-25T19:35:51.796Z,101559.47
2023-05-25T19:45:55.274Z,101570.66
2023-05-25T19:55:57.579Z,101582.59
2023-05-25T20:05:59.681Z,101586.25
2023-05-25T20:16:01.816Z,101577.25
2023-05-25T20:26:04.005Z,101582.19
2023-05-25T20:36:06.226Z,101587.84
2023-05-25T20:46:08.805Z,101590.56
2023-05-25T20:56:11.064Z,101613.69
2023-05-25T21:06:13.210Z,101617.81
2023-05-25T21:16:15.398Z,101616.41
2023-05-25T21:26:17.592Z,101628.41
2023-05-25T21:36:20.324Z,101636.34
2023-05-25T21:46:22.426Z,101643.84
2023-05-25T21:56:24.541Z,101669.88
2023-05-25T22:06:26.645Z,101666.91
2023-05-25T22:16:28.933Z,101675.63
2023-05-25T22:26:31.076Z,101681.03
2023-05-25T22:36:33.204Z,101686.84
2023-05-25T22:46:35.829Z,101684.25
2023-05-25T22:56:37.946Z,101706.13
2023-05-25T23:06:40.043Z,101714.78
2023-05-25T23:16:42.212Z,101713.53
2023-05-25T23:26:44.329Z,101723.25
2023-05-25T23:36:46.441Z,101723.81
2023-05-25T23:46:48.524Z,101726.75
2023-05-25T23:56:51.538Z,101726.69
